Time;durP1;ratioP1;P1;durP2;ratioP2;P2;SDS_P1;SDS_P2;PMS_P1;PMS_P2;Temp;Humidity;BMP_temperature;BMP_pressure;BME280_temperature;BME280_humidity;BME280_pressure;Samples;Min_cycle;Max_cycle;Signal;HPM_P1;HPM_P2
2024/02/17 00:02:16;;;;;;;30.07;25.30;;;11.90;99.90;;;;;;4784168;29;20194;-45
2024/02/17 00:04:42;;;;;;;28.33;25.53;;;11.90;99.90;;;;;;4779584;29;20834;-47
2024/02/17 00:07:08;;;;;;;30.80;27.50;;;11.90;99.90;;;;;;4791753;29;21047;-49
2024/02/17 00:09:34;;;;;;;30.83;27.50;;;11.90;99.90;;;;;;4782865;29;20231;-49
2024/02/17 00:12:00;;;;;;;28.90;26.03;;;11.90;99.90;;;;;;4785174;29;20192;-53
2024/02/17 00:14:25;;;;;;;31.30;28.17;;;11.90;99.90;;;;;;4780760;29;20457;-44
2024/02/17 00:16:51;;;;;;;32.67;29.17;;;11.80;99.90;;;;;;4779509;29;20222;-44
2024/02/17 00:19:17;;;;;;;31.83;28.63;;;11.70;99.90;;;;;;4783039;29;20214;-44
2024/02/17 00:21:42;;;;;;;31.57;28.20;;;11.60;99.90;;;;;;4785039;29;20195;-48
2024/02/17 00:24:08;;;;;;;34.23;30.63;;;11.50;99.90;;;;;;4786518;29;20757;-47
2024/02/17 00:26:34;;;;;;;34.80;31.03;;;11.40;99.90;;;;;;4782268;29;20998;-49
2024/02/17 00:29:00;;;;;;;36.83;32.83;;;11.30;99.90;;;;;;4781515;29;20425;-50
2024/02/17 00:31:25;;;;;;;35.90;31.97;;;11.20;99.90;;;;;;4778839;29;20201;-43
2024/02/17 00:33:52;;;;;;;36.60;31.87;;;11.10;99.90;;;;;;4781351;29;20266;-48
2024/02/17 00:36:18;;;;;;;38.57;32.73;;;11.00;99.90;;;;;;4779006;29;21041;-47
2024/02/17 00:38:44;;;;;;;36.17;32.47;;;10.90;99.90;;;;;;4782546;29;20449;-50
2024/02/17 00:41:10;;;;;;;37.30;32.20;;;10.80;99.90;;;;;;4780442;29;20467;-46
2024/02/17 00:43:36;;;;;;;37.43;32.90;;;10.80;99.90;;;;;;4785435;29;20673;-45
2024/02/17 00:46:02;;;;;;;37.57;32.50;;;10.70;99.90;;;;;;4778293;29;20432;-47
2024/02/17 00:48:27;;;;;;;34.43;30.73;;;10.60;99.90;;;;;;4779731;29;20436;-46
2024/02/17 00:50:53;;;;;;;38.97;33.00;;;10.60;99.90;;;;;;4789060;29;20198;-48
2024/02/17 00:53:21;;;;;;;36.70;32.60;;;10.60;99.90;;;;;;4778708;29;20203;-48
2024/02/17 00:55:46;;;;;;;37.73;32.53;;;10.50;99.90;;;;;;4782615;29;20530;-46
2024/02/17 00:58:12;;;;;;;35.73;31.87;;;10.40;99.90;;;;;;4780355;29;20476;-49
2024/02/17 01:00:38;;;;;;;41.10;33.23;;;10.50;99.90;;;;;;4784035;29;21011;-48
2024/02/17 01:03:04;;;;;;;41.20;32.80;;;10.50;99.90;;;;;;4777807;29;20199;-49
2024/02/17 01:05:29;;;;;;;37.33;31.57;;;10.50;99.90;;;;;;4779576;29;20191;-48
2024/02/17 01:07:55;;;;;;;35.60;31.80;;;10.50;99.90;;;;;;4787290;29;20456;-45
2024/02/17 01:10:21;;;;;;;39.60;31.97;;;10.50;99.90;;;;;;4785056;29;20198;-47
2024/02/17 01:12:46;;;;;;;38.87;33.17;;;10.50;99.90;;;;;;4778298;29;20231;-53
2024/02/17 01:15:12;;;;;;;37.80;31.90;;;10.40;99.90;;;;;;4788394;29;21203;-52
2024/02/17 01:17:38;;;;;;;39.23;31.40;;;10.50;99.90;;;;;;4778106;29;20313;-49
2024/02/17 01:20:05;;;;;;;41.07;32.90;;;10.50;99.90;;;;;;4780663;29;20205;-50
2024/02/17 01:22:30;;;;;;;40.80;33.97;;;10.40;99.90;;;;;;4790260;29;20436;-50
2024/02/17 01:24:56;;;;;;;36.00;31.40;;;10.40;99.90;;;;;;4781266;29;21280;-49
2024/02/17 01:27:22;;;;;;;39.10;32.07;;;10.50;99.90;;;;;;4781982;29;20213;-52
2024/02/17 01:29:47;;;;;;;38.47;31.57;;;10.50;99.90;;;;;;4784768;29;20275;-53
2024/02/17 01:32:13;;;;;;;39.93;32.83;;;10.50;99.90;;;;;;4781887;29;20760;-49
2024/02/17 01:34:38;;;;;;;38.77;32.60;;;10.50;99.90;;;;;;4781561;29;20344;-53
2024/02/17 01:37:04;;;;;;;36.50;31.33;;;10.50;99.90;;;;;;4787411;29;20207;-49
2024/02/17 01:39:29;;;;;;;36.43;32.50;;;10.60;99.90;;;;;;4787476;29;20685;-50
2024/02/17 01:41:55;;;;;;;38.33;33.00;;;10.60;99.90;;;;;;4788485;29;20678;-48
2024/02/17 01:44:21;;;;;;;35.30;31.50;;;10.60;99.90;;;;;;4788291;29;20242;-49
2024/02/17 01:46:51;;;;;;;40.80;33.40;;;10.60;99.90;;;;;;4782763;29;21015;-50
2024/02/17 01:49:16;;;;;;;39.03;32.17;;;10.60;99.90;;;;;;4788918;29;20205;-50
2024/02/17 01:51:44;;;;;;;38.40;32.60;;;10.70;99.90;;;;;;4789881;29;20432;-52
2024/02/17 01:54:10;;;;;;;38.10;31.53;;;10.70;99.90;;;;;;4786664;29;20188;-48
2024/02/17 01:56:36;;;;;;;39.10;32.70;;;10.60;99.90;;;;;;4786246;29;20480;-46
2024/02/17 01:59:03;;;;;;;41.07;33.17;;;10.60;99.90;;;;;;4787541;29;20468;-49
2024/02/17 02:01:29;;;;;;;38.73;33.13;;;10.60;99.90;;;;;;4785356;29;20435;-54
2024/02/17 02:03:55;;;;;;;37.00;32.90;;;10.50;99.90;;;;;;4783674;29;20457;-53
2024/02/17 02:06:23;;;;;;;44.20;33.00;;;10.50;99.90;;;;;;4779015;29;20476;-51
2024/02/17 02:08:50;;;;;;;44.70;34.80;;;10.50;99.90;;;;;;4777440;29;20210;-46
2024/02/17 02:11:19;;;;;;;43.53;35.37;;;10.50;99.90;;;;;;4784002;29;20453;-49
2024/02/17 02:13:45;;;;;;;55.03;35.13;;;10.50;99.90;;;;;;4788599;29;20596;-48
2024/02/17 02:16:11;;;;;;;40.30;34.13;;;10.50;99.90;;;;;;4778565;29;20451;-52
2024/02/17 02:18:36;;;;;;;45.13;33.87;;;10.40;99.90;;;;;;4777394;29;20191;-49
2024/02/17 02:21:04;;;;;;;48.63;34.70;;;10.40;99.90;;;;;;4778930;29;20230;-49
2024/02/17 02:23:31;;;;;;;46.20;35.60;;;10.40;99.90;;;;;;4786921;29;20190;-51
2024/02/17 02:25:56;;;;;;;45.73;34.20;;;10.30;99.90;;;;;;4777815;29;20440;-51
2024/02/17 02:28:23;;;;;;;42.90;33.50;;;10.30;99.90;;;;;;4777978;29;20501;-52
2024/02/17 02:30:50;;;;;;;46.10;36.10;;;10.30;99.90;;;;;;4782580;29;20267;-50
2024/02/17 02:33:16;;;;;;;44.83;35.60;;;10.40;99.90;;;;;;4782478;29;20983;-51
2024/02/17 02:35:42;;;;;;;46.50;36.00;;;10.40;99.90;;;;;;4785298;29;20555;-51
2024/02/17 02:38:08;;;;;;;50.10;35.23;;;10.40;99.90;;;;;;4786265;29;20259;-52
2024/02/17 02:40:33;;;;;;;39.90;33.40;;;10.40;99.90;;;;;;4784987;29;20443;-52
2024/02/17 02:42:59;;;;;;;41.13;35.10;;;10.50;99.90;;;;;;4787193;29;20455;-49
2024/02/17 02:45:25;;;;;;;50.57;34.70;;;10.50;99.90;;;;;;4792838;29;20609;-50
2024/02/17 02:47:51;;;;;;;45.93;35.73;;;10.50;99.90;;;;;;4799348;29;20213;-48
2024/02/17 02:50:16;;;;;;;44.50;34.57;;;10.50;99.90;;;;;;4794562;29;20190;-48
2024/02/17 02:52:42;;;;;;;48.57;35.07;;;10.50;99.90;;;;;;4793880;29;20194;-52
2024/02/17 02:55:08;;;;;;;42.83;35.00;;;10.50;99.90;;;;;;4787367;29;20197;-51
2024/02/17 02:57:34;;;;;;;45.17;36.90;;;10.50;99.90;;;;;;4791661;29;20654;-50
2024/02/17 03:00:00;;;;;;;45.57;33.90;;;10.50;99.90;;;;;;4787025;29;20710;-49
2024/02/17 03:02:26;;;;;;;44.20;33.70;;;10.50;99.90;;;;;;4790942;29;20452;-50
2024/02/17 03:04:52;;;;;;;42.90;34.83;;;10.60;99.90;;;;;;4789105;29;20984;-47
2024/02/17 03:07:18;;;;;;;45.77;35.27;;;10.60;99.90;;;;;;4795508;29;20500;-50
2024/02/17 03:09:44;;;;;;;44.73;35.60;;;10.60;99.90;;;;;;4791097;29;20440;-52
2024/02/17 03:12:10;;;;;;;44.60;34.60;;;10.60;99.90;;;;;;4788008;29;20457;-53
2024/02/17 03:14:37;;;;;;;42.53;34.67;;;10.60;99.90;;;;;;4789996;29;20873;-52
2024/02/17 03:17:03;;;;;;;39.03;32.90;;;10.60;99.90;;;;;;4783924;29;20305;-52
2024/02/17 03:19:29;;;;;;;35.33;31.30;;;10.60;99.90;;;;;;4787489;29;20478;-47
2024/02/17 03:21:55;;;;;;;34.73;30.80;;;10.60;99.90;;;;;;4786456;29;20596;-51
2024/02/17 03:24:21;;;;;;;44.43;33.00;;;10.70;99.90;;;;;;4793844;29;20230;-49
2024/02/17 03:26:47;;;;;;;42.20;33.10;;;10.70;99.90;;;;;;4794943;29;20876;-52
2024/02/17 03:29:13;;;;;;;40.50;33.97;;;10.70;99.90;;;;;;4788959;29;20286;-53
2024/02/17 03:31:38;;;;;;;43.47;34.17;;;10.70;99.90;;;;;;4784060;29;20453;-52
2024/02/17 03:34:05;;;;;;;40.70;31.77;;;10.70;99.90;;;;;;4797841;29;20203;-53
2024/02/17 03:36:33;;;;;;;27.90;25.10;;;10.70;99.90;;;;;;4786635;29;20214;-48
2024/02/17 03:38:58;;;;;;;30.60;27.07;;;10.80;99.90;;;;;;4794345;29;20479;-50
2024/02/17 03:41:26;;;;;;;28.33;25.50;;;10.90;99.90;;;;;;4789507;29;20522;-47
2024/02/17 03:43:52;;;;;;;28.17;25.27;;;10.90;99.90;;;;;;4792945;29;20183;-46
2024/02/17 03:46:18;;;;;;;28.00;25.33;;;10.90;99.90;;;;;;4788117;29;20857;-46
2024/02/17 03:48:43;;;;;;;26.70;23.90;;;10.90;99.90;;;;;;4785919;29;20450;-44
2024/02/17 03:51:09;;;;;;;24.80;22.30;;;11.00;99.90;;;;;;4787507;29;20277;-49
2024/02/17 03:53:35;;;;;;;25.00;22.50;;;11.00;99.90;;;;;;4787059;29;20198;-49
2024/02/17 03:56:01;;;;;;;26.17;23.20;;;11.00;99.90;;;;;;4787397;29;20187;-53
2024/02/17 03:58:27;;;;;;;25.40;23.20;;;11.00;99.90;;;;;;4790711;29;20535;-50
2024/02/17 04:00:53;;;;;;;27.10;24.40;;;11.00;99.90;;;;;;4782519;29;20456;-50
2024/02/17 04:03:19;;;;;;;25.43;23.03;;;11.10;99.90;;;;;;4784347;29;20563;-50
2024/02/17 04:05:44;;;;;;;25.60;23.13;;;11.10;99.90;;;;;;4785230;29;20456;-49
2024/02/17 04:08:10;;;;;;;24.37;22.10;;;11.00;99.90;;;;;;4788874;29;20218;-52
2024/02/17 04:10:36;;;;;;;25.63;23.07;;;11.10;99.90;;;;;;4791811;29;20201;-49
2024/02/17 04:13:03;;;;;;;24.97;22.57;;;11.00;99.90;;;;;;4781622;29;20246;-52
2024/02/17 04:15:29;;;;;;;25.33;22.77;;;11.00;99.90;;;;;;4788426;29;20467;-52
2024/02/17 04:17:55;;;;;;;24.57;22.10;;;11.00;99.90;;;;;;4788672;29;21289;-52
2024/02/17 04:20:20;;;;;;;24.50;22.37;;;11.00;99.90;;;;;;4793350;29;20190;-47
2024/02/17 04:22:46;;;;;;;24.83;22.47;;;11.00;99.90;;;;;;4781152;29;21197;-48
2024/02/17 04:25:12;;;;;;;23.33;21.20;;;11.00;99.90;;;;;;4777769;29;20187;-45
2024/02/17 04:27:38;;;;;;;24.90;22.37;;;11.00;99.90;;;;;;4785209;29;20198;-45
2024/02/17 04:30:04;;;;;;;25.40;22.80;;;11.00;99.90;;;;;;4785241;29;20666;-46
2024/02/17 04:32:30;;;;;;;25.60;23.13;;;11.00;99.90;;;;;;4790956;29;20476;-47
2024/02/17 04:34:56;;;;;;;24.87;22.37;;;11.00;99.90;;;;;;4792076;29;20578;-45
2024/02/17 04:37:21;;;;;;;24.57;22.37;;;11.00;99.90;;;;;;4787550;29;20218;-47
2024/02/17 04:39:47;;;;;;;24.90;22.40;;;11.00;99.90;;;;;;4789265;29;20229;-48
2024/02/17 04:42:13;;;;;;;25.00;21.37;;;11.00;99.90;;;;;;4791000;29;20436;-45
2024/02/17 04:44:39;;;;;;;25.93;23.13;;;11.00;99.90;;;;;;4778680;29;20455;-46
2024/02/17 04:47:04;;;;;;;24.83;22.27;;;11.00;99.90;;;;;;4786467;29;20278;-53
2024/02/17 04:49:30;;;;;;;24.50;22.00;;;11.00;99.90;;;;;;4781581;29;20571;-46
2024/02/17 04:51:55;;;;;;;25.17;22.80;;;11.00;99.90;;;;;;4786087;29;20308;-48
2024/02/17 04:54:21;;;;;;;24.70;22.10;;;11.00;99.90;;;;;;4784518;29;20214;-45
2024/02/17 04:56:47;;;;;;;25.23;22.73;;;11.00;99.90;;;;;;4785167;29;20325;-48
2024/02/17 04:59:12;;;;;;;24.40;21.90;;;11.00;99.90;;;;;;4777564;29;20203;-45
2024/02/17 05:01:38;;;;;;;24.90;22.30;;;11.00;99.90;;;;;;4780341;29;20191;-44
2024/02/17 05:04:04;;;;;;;25.97;23.17;;;11.00;99.90;;;;;;4783865;29;20610;-46
2024/02/17 05:06:29;;;;;;;25.43;22.80;;;11.00;99.90;;;;;;4782237;29;20201;-46
2024/02/17 05:08:55;;;;;;;24.67;22.20;;;11.00;99.90;;;;;;4779022;29;20935;-44
2024/02/17 05:11:20;;;;;;;28.73;22.90;;;11.00;99.90;;;;;;4787206;29;20191;-44
2024/02/17 05:13:46;;;;;;;25.57;22.60;;;11.00;99.90;;;;;;4782625;29;20238;-44
2024/02/17 05:16:12;;;;;;;26.30;23.50;;;10.90;99.90;;;;;;4788041;29;20191;-49
2024/02/17 05:18:38;;;;;;;27.20;24.40;;;10.90;99.90;;;;;;4782414;29;20191;-46
2024/02/17 05:21:04;;;;;;;26.83;23.93;;;10.90;99.90;;;;;;4782708;29;20187;-47
2024/02/17 05:23:29;;;;;;;25.23;22.30;;;10.90;99.90;;;;;;4785814;29;21317;-47
2024/02/17 05:25:55;;;;;;;29.73;22.90;;;10.90;99.90;;;;;;4778363;29;20444;-44
2024/02/17 05:28:22;;;;;;;25.27;22.67;;;10.90;99.90;;;;;;4779611;29;20405;-47
2024/02/17 05:30:48;;;;;;;26.17;23.50;;;10.90;99.90;;;;;;4788381;29;20605;-49
2024/02/17 05:33:14;;;;;;;27.17;24.27;;;10.90;99.90;;;;;;4778732;29;20484;-45
2024/02/17 05:35:39;;;;;;;26.77;23.97;;;10.80;99.90;;;;;;4789983;29;20452;-44
2024/02/17 05:38:05;;;;;;;25.87;23.37;;;10.80;99.90;;;;;;4781085;29;20246;-46
2024/02/17 05:40:30;;;;;;;25.27;22.70;;;10.70;99.90;;;;;;4777248;29;20233;-49
2024/02/17 05:42:56;;;;;;;24.20;21.70;;;10.70;99.90;;;;;;4785655;29;20663;-46
2024/02/17 05:45:21;;;;;;;27.23;23.37;;;10.70;99.90;;;;;;4788146;29;20205;-46
2024/02/17 05:47:48;;;;;;;28.20;23.10;;;10.70;99.90;;;;;;4781016;29;20197;-48
2024/02/17 05:50:13;;;;;;;24.77;22.23;;;10.70;99.90;;;;;;4778315;29;20218;-46
2024/02/17 05:52:40;;;;;;;25.97;23.30;;;10.70;99.90;;;;;;4782170;29;21058;-47
2024/02/17 05:55:06;;;;;;;24.37;21.87;;;10.70;99.90;;;;;;4779498;29;20191;-46
2024/02/17 05:57:31;;;;;;;24.83;22.43;;;10.70;99.90;;;;;;4784805;29;20490;-48
2024/02/17 05:59:57;;;;;;;24.33;21.90;;;10.70;99.90;;;;;;4787232;29;20456;-43
2024/02/17 06:02:23;;;;;;;23.90;21.60;;;10.60;99.90;;;;;;4782290;29;20195;-45
2024/02/17 06:04:48;;;;;;;24.50;21.97;;;10.70;99.90;;;;;;4787437;29;20622;-48
2024/02/17 06:07:15;;;;;;;25.33;22.80;;;10.70;99.90;;;;;;4788655;29;20214;-45
2024/02/17 06:09:41;;;;;;;24.47;21.97;;;10.60;99.90;;;;;;4779677;29;20199;-43
2024/02/17 06:12:07;;;;;;;25.07;22.57;;;10.60;99.90;;;;;;4781519;29;21224;-45
2024/02/17 06:14:32;;;;;;;24.60;22.00;;;10.70;99.90;;;;;;4783339;29;20358;-45
2024/02/17 06:17:05;;;;;;;23.80;21.60;;;10.60;99.90;;;;;;4782485;29;20218;-48
2024/02/17 06:22:14;;;;;;;23.23;20.77;;;10.60;99.90;;;;;;4792631;29;20476;-49
2024/02/17 06:24:40;;;;;;;23.73;20.93;;;10.60;99.90;;;;;;4784918;29;20448;-53
2024/02/17 06:27:06;;;;;;;24.07;21.47;;;10.50;99.90;;;;;;4787423;29;20659;-47
2024/02/17 06:29:31;;;;;;;22.97;20.67;;;10.60;99.90;;;;;;4782660;29;20813;-49
2024/02/17 06:31:57;;;;;;;23.97;21.43;;;10.50;99.90;;;;;;4777941;29;20198;-48
2024/02/17 06:34:22;;;;;;;24.03;21.60;;;10.50;99.90;;;;;;4785586;29;20198;-53
2024/02/17 06:36:48;;;;;;;22.97;20.70;;;10.60;99.90;;;;;;4787228;29;20224;-50
2024/02/17 06:39:14;;;;;;;23.23;20.93;;;10.50;99.90;;;;;;4782557;29;20222;-50
2024/02/17 06:41:40;;;;;;;22.37;20.07;;;10.50;99.90;;;;;;4787888;29;20291;-50
2024/02/17 06:44:06;;;;;;;23.50;21.10;;;10.50;99.90;;;;;;4790889;29;20420;-49
2024/02/17 06:46:32;;;;;;;24.20;21.67;;;10.50;99.90;;;;;;4785808;29;22025;-52
2024/02/17 06:48:58;;;;;;;24.10;21.40;;;10.40;99.90;;;;;;4781551;29;20446;-51
2024/02/17 06:51:23;;;;;;;23.23;20.90;;;10.40;99.90;;;;;;4777506;29;20406;-48
2024/02/17 06:53:49;;;;;;;23.93;20.50;;;10.30;99.90;;;;;;4786102;29;20606;-49
2024/02/17 06:56:15;;;;;;;23.60;21.23;;;10.30;99.90;;;;;;4780491;29;20222;-51
2024/02/17 06:58:41;;;;;;;22.57;20.33;;;10.30;99.90;;;;;;4787239;29;20802;-52
2024/02/17 07:01:07;;;;;;;21.90;19.70;;;10.30;99.90;;;;;;4779180;29;20510;-51
2024/02/17 07:03:33;;;;;;;23.80;21.30;;;10.30;99.90;;;;;;4787712;29;20504;-52
2024/02/17 07:05:58;;;;;;;23.97;21.37;;;10.30;99.90;;;;;;4784867;29;20818;-48
2024/02/17 07:08:24;;;;;;;24.50;21.50;;;10.30;99.90;;;;;;4785402;29;20276;-48
2024/02/17 07:10:50;;;;;;;23.23;21.00;;;10.30;99.90;;;;;;4781298;29;20213;-51
2024/02/17 07:13:15;;;;;;;23.77;20.50;;;10.40;99.90;;;;;;4781682;29;20239;-48
2024/02/17 07:15:42;;;;;;;23.77;21.40;;;10.40;99.90;;;;;;4782217;29;20718;-54
2024/02/17 07:18:08;;;;;;;22.47;20.27;;;10.40;99.90;;;;;;4780483;29;20215;-49
2024/02/17 07:20:34;;;;;;;22.17;19.87;;;10.50;99.90;;;;;;4782555;29;20432;-51
2024/02/17 07:23:00;;;;;;;22.67;20.43;;;10.40;99.90;;;;;;4776919;29;20194;-49
2024/02/17 07:25:29;;;;;;;24.73;22.40;;;10.40;99.90;;;;;;4783710;29;20213;-46
2024/02/17 07:27:59;;;;;;;23.50;21.03;;;10.50;99.90;;;;;;4786793;29;20446;-45
2024/02/17 07:30:25;;;;;;;22.97;20.67;;;10.50;99.90;;;;;;4781095;29;20916;-47
2024/02/17 07:32:52;;;;;;;24.53;22.03;;;10.50;99.90;;;;;;4783114;29;20463;-44
2024/02/17 07:35:18;;;;;;;24.50;21.87;;;10.60;99.90;;;;;;4782058;29;20456;-43
2024/02/17 07:37:43;;;;;;;25.20;21.97;;;10.60;99.90;;;;;;4793479;29;20483;-45
2024/02/17 07:40:10;;;;;;;23.27;20.70;;;10.70;99.90;;;;;;4791116;29;21197;-46
2024/02/17 07:42:36;;;;;;;23.37;21.07;;;10.70;99.90;;;;;;4783590;29;20210;-44
2024/02/17 07:45:03;;;;;;;23.00;19.70;;;10.80;99.90;;;;;;4785115;29;21560;-45
2024/02/17 07:47:32;;;;;;;23.10;20.60;;;10.90;99.90;;;;;;4789135;29;20428;-49
2024/02/17 07:49:58;;;;;;;22.67;20.30;;;11.00;99.90;;;;;;4788744;29;20487;-48
2024/02/17 07:52:23;;;;;;;22.27;20.07;;;11.00;99.90;;;;;;4788894;29;21237;-46
2024/02/17 07:54:49;;;;;;;22.03;19.43;;;11.20;99.90;;;;;;4788596;29;20577;-46
2024/02/17 07:57:15;;;;;;;22.37;19.97;;;11.30;99.90;;;;;;4794261;29;20222;-43
2024/02/17 07:59:41;;;;;;;22.60;20.30;;;11.30;99.90;;;;;;4786554;29;20963;-46
2024/02/17 08:02:07;;;;;;;20.70;18.70;;;11.30;99.90;;;;;;4790593;29;20199;-46
2024/02/17 08:04:32;;;;;;;23.07;20.70;;;11.40;99.90;;;;;;4788749;29;20447;-48
2024/02/17 08:06:58;;;;;;;22.23;19.83;;;11.40;99.90;;;;;;4791340;29;20278;-47
2024/02/17 08:09:23;;;;;;;22.23;20.07;;;11.50;99.90;;;;;;4782949;29;20206;-48
2024/02/17 08:11:56;;;;;;;21.57;19.47;;;11.50;99.90;;;;;;4784155;29;20209;-48
2024/02/17 08:14:21;;;;;;;19.60;17.80;;;11.60;99.90;;;;;;4785273;29;20274;-48
2024/02/17 08:16:50;;;;;;;20.80;18.90;;;11.60;99.90;;;;;;4785205;29;20840;-45
2024/02/17 08:19:15;;;;;;;20.27;18.40;;;11.60;99.90;;;;;;4781308;29;20203;-51
2024/02/17 08:21:41;;;;;;;21.23;19.37;;;11.60;99.90;;;;;;4782229;29;20772;-45
2024/02/17 08:24:07;;;;;;;18.83;17.23;;;11.60;99.90;;;;;;4789248;29;20554;-48
2024/02/17 08:26:33;;;;;;;19.00;17.50;;;11.60;99.90;;;;;;4782595;29;20210;-47
2024/02/17 08:28:59;;;;;;;19.47;17.73;;;11.60;99.90;;;;;;4788100;29;20222;-47
2024/02/17 08:31:25;;;;;;;19.83;18.23;;;11.80;99.90;;;;;;4782562;29;20448;-45
2024/02/17 08:33:50;;;;;;;19.30;17.90;;;12.10;99.90;;;;;;4787600;29;20726;-46
2024/02/17 08:36:16;;;;;;;19.50;18.00;;;12.20;99.90;;;;;;4784989;29;20449;-48
2024/02/17 08:38:42;;;;;;;18.40;16.80;;;12.50;99.90;;;;;;4780197;29;20199;-49
2024/02/17 08:41:08;;;;;;;18.17;16.90;;;12.70;99.90;;;;;;4778156;29;20516;-48
2024/02/17 08:43:33;;;;;;;17.50;16.20;;;12.70;99.90;;;;;;4783772;29;20199;-48
2024/02/17 08:45:59;;;;;;;16.07;14.87;;;12.80;99.90;;;;;;4792601;29;20210;-48
2024/02/17 08:48:25;;;;;;;16.80;15.47;;;12.80;99.90;;;;;;4783522;29;20328;-46
2024/02/17 08:50:51;;;;;;;14.80;13.80;;;12.80;99.90;;;;;;4785326;29;20210;-47
2024/02/17 08:53:18;;;;;;;16.00;14.87;;;12.90;99.90;;;;;;4781542;29;21148;-45
2024/02/17 08:55:43;;;;;;;15.87;14.57;;;13.00;99.90;;;;;;4780348;29;20457;-45
2024/02/17 08:58:09;;;;;;;16.53;15.33;;;13.00;99.90;;;;;;4782669;29;20908;-48
2024/02/17 09:00:36;;;;;;;15.90;14.80;;;13.00;99.90;;;;;;4788474;29;20977;-46
2024/02/17 09:03:02;;;;;;;15.90;14.50;;;13.00;99.90;;;;;;4790207;29;20251;-46
2024/02/17 09:05:28;;;;;;;15.30;14.30;;;13.10;99.90;;;;;;4790025;29;20448;-46
2024/02/17 09:07:54;;;;;;;16.23;15.03;;;13.00;99.90;;;;;;4788550;29;20489;-46
2024/02/17 09:10:20;;;;;;;15.10;14.10;;;13.00;99.90;;;;;;4789212;29;20484;-44
2024/02/17 09:12:45;;;;;;;15.87;14.77;;;12.90;99.90;;;;;;4781567;29;20350;-48
2024/02/17 09:15:11;;;;;;;14.30;13.40;;;13.00;99.90;;;;;;4778858;29;20234;-44
2024/02/17 09:17:37;;;;;;;15.03;14.13;;;13.00;99.90;;;;;;4779352;29;20222;-45
2024/02/17 09:20:04;;;;;;;15.27;14.17;;;13.00;99.90;;;;;;4794155;29;20270;-49
2024/02/17 09:22:30;;;;;;;15.03;13.87;;;12.80;99.90;;;;;;4790071;29;21272;-52
2024/02/17 09:24:56;;;;;;;15.30;14.20;;;12.70;99.90;;;;;;4778614;29;20459;-52
2024/02/17 09:27:22;;;;;;;14.53;13.63;;;12.70;99.90;;;;;;4790770;29;20191;-47
2024/02/17 09:29:47;;;;;;;14.97;14.07;;;12.60;99.90;;;;;;4793796;29;20787;-51
2024/02/17 09:32:14;;;;;;;15.50;14.40;;;12.40;99.90;;;;;;4785078;29;21493;-51
2024/02/17 09:34:40;;;;;;;14.00;13.20;;;12.40;99.90;;;;;;4792224;29;20194;-47
2024/02/17 09:37:10;;;;;;;15.40;14.40;;;12.20;99.90;;;;;;4785934;29;21111;-47
2024/02/17 09:39:39;;;;;;;14.77;13.80;;;12.20;99.90;;;;;;4793020;29;20432;-46
2024/02/17 09:42:05;;;;;;;14.50;13.50;;;12.20;99.90;;;;;;4783586;29;20786;-53
2024/02/17 09:44:30;;;;;;;15.57;14.60;;;12.20;99.90;;;;;;4783605;29;20452;-52
2024/02/17 09:46:57;;;;;;;14.60;13.60;;;12.40;99.90;;;;;;4791745;29;20267;-50
2024/02/17 09:49:25;;;;;;;15.93;14.80;;;12.50;99.90;;;;;;4784846;29;20584;-50
2024/02/17 09:51:52;;;;;;;14.57;13.67;;;12.60;99.90;;;;;;4787252;29;20527;-50
2024/02/17 09:54:21;;;;;;;15.60;14.60;;;12.60;99.90;;;;;;4790191;29;20805;-47
2024/02/17 09:56:50;;;;;;;14.53;13.63;;;12.60;99.90;;;;;;4792001;29;21086;-49
2024/02/17 09:59:16;;;;;;;14.63;13.80;;;12.50;99.90;;;;;;4784403;29;20444;-54
2024/02/17 10:01:44;;;;;;;14.47;13.40;;;12.40;99.90;;;;;;4785072;29;20543;-49
2024/02/17 10:04:10;;;;;;;13.70;12.80;;;12.40;99.90;;;;;;4784646;29;20444;-47
2024/02/17 10:06:35;;;;;;;14.30;13.30;;;12.30;99.90;;;;;;4783774;29;20460;-53
2024/02/17 10:09:04;;;;;;;13.83;12.93;;;12.30;99.90;;;;;;4784168;29;20762;-50
2024/02/17 10:11:33;;;;;;;14.10;13.20;;;12.30;99.90;;;;;;4781802;29;20207;-50
2024/02/17 10:14:04;;;;;;;14.30;13.20;;;12.30;99.90;;;;;;4785820;29;20483;-50
2024/02/17 10:16:31;;;;;;;13.97;13.00;;;12.40;99.90;;;;;;4780347;29;20448;-50
2024/02/17 10:18:59;;;;;;;13.70;12.90;;;12.40;99.90;;;;;;4786124;29;20468;-51
2024/02/17 10:21:25;;;;;;;13.33;12.53;;;12.50;99.90;;;;;;4775300;29;20864;-53
2024/02/17 10:23:51;;;;;;;14.23;13.37;;;12.50;99.90;;;;;;4781038;29;20435;-50
2024/02/17 10:26:17;;;;;;;13.77;12.97;;;12.60;99.90;;;;;;4782473;29;20509;-51
2024/02/17 10:28:52;;;;;;;13.93;13.13;;;12.60;99.90;;;;;;4789918;29;20440;-48
2024/02/17 10:31:20;;;;;;;13.57;12.77;;;12.60;99.90;;;;;;4793470;29;20419;-53
2024/02/17 10:33:48;;;;;;;14.40;13.50;;;12.60;99.90;;;;;;4783346;29;20856;-53
2024/02/17 10:36:17;;;;;;;14.57;13.60;;;12.60;99.90;;;;;;4792323;29;20796;-49
2024/02/17 10:38:43;;;;;;;14.20;13.40;;;12.60;99.90;;;;;;4784414;29;20547;-50
2024/02/17 10:41:09;;;;;;;14.07;13.17;;;12.50;99.90;;;;;;4791200;29;20530;-50
2024/02/17 10:43:39;;;;;;;14.03;13.13;;;12.50;99.90;;;;;;4787347;29;20429;-48
2024/02/17 10:46:11;;;;;;;14.30;13.40;;;12.40;99.90;;;;;;4783904;29;20475;-50
2024/02/17 10:48:44;;;;;;;13.93;13.03;;;12.40;99.90;;;;;;4783103;29;20555;-50
2024/02/17 10:51:10;;;;;;;13.73;12.93;;;12.50;99.90;;;;;;4779771;29;20456;-50
2024/02/17 10:53:47;;;;;;;13.80;13.00;;;12.50;99.90;;;;;;4782744;29;20444;-53
2024/02/17 10:56:17;;;;;;;13.13;12.33;;;12.50;99.90;;;;;;4789303;29;20447;-48
2024/02/17 10:58:45;;;;;;;13.50;12.80;;;12.60;99.90;;;;;;4786658;29;20447;-52
2024/02/17 11:01:13;;;;;;;14.03;13.03;;;12.60;99.90;;;;;;4785470;29;20444;-52
2024/02/17 11:03:42;;;;;;;12.50;11.70;;;12.60;99.90;;;;;;4789524;29;20424;-54
2024/02/17 11:06:11;;;;;;;14.10;13.10;;;12.50;99.90;;;;;;4792356;29;21007;-47
2024/02/17 11:08:37;;;;;;;13.20;12.50;;;12.50;99.90;;;;;;4783944;29;21192;-52
2024/02/17 11:11:25;;;;;;;13.33;12.60;;;12.40;99.90;;;;;;4785806;29;20535;-51
2024/02/17 11:13:52;;;;;;;12.83;12.13;;;12.30;99.90;;;;;;4785445;29;20491;-54
2024/02/17 11:16:21;;;;;;;13.93;12.93;;;12.30;99.90;;;;;;4787724;29;20448;-48
2024/02/17 11:18:51;;;;;;;13.00;12.30;;;12.40;99.90;;;;;;4787346;29;20914;-51
2024/02/17 11:21:37;;;;;;;13.20;12.50;;;12.60;99.90;;;;;;4793726;29;20490;-49
2024/02/17 11:24:06;;;;;;;13.00;12.30;;;12.80;99.90;;;;;;4786158;29;21304;-50
2024/02/17 11:26:32;;;;;;;14.03;13.10;;;13.00;99.90;;;;;;4796733;29;20446;-48
2024/02/17 11:29:00;;;;;;;13.90;12.97;;;13.40;99.90;;;;;;4795667;29;20476;-50
2024/02/17 11:31:32;;;;;;;12.10;11.33;;;13.80;99.90;;;;;;4795667;29;20191;-53
2024/02/17 11:34:02;;;;;;;13.53;12.73;;;14.30;99.90;;;;;;4788820;29;20438;-52
2024/02/17 11:36:31;;;;;;;13.70;12.90;;;14.80;99.90;;;;;;4791527;29;20924;-46
2024/02/17 11:38:59;;;;;;;13.07;12.30;;;15.40;98.40;;;;;;4789723;29;20904;-47
2024/02/17 11:41:25;;;;;;;13.00;12.30;;;15.60;95.80;;;;;;4796639;29;20431;-50
2024/02/17 11:43:51;;;;;;;12.43;11.63;;;15.60;95.60;;;;;;4789123;29;20789;-52
2024/02/17 11:46:19;;;;;;;13.07;12.30;;;15.40;96.30;;;;;;4794839;29;20480;-50
2024/02/17 11:48:45;;;;;;;13.00;12.20;;;15.30;96.70;;;;;;4781494;29;20211;-53
2024/02/17 11:51:21;;;;;;;14.40;13.47;;;15.40;95.40;;;;;;4788199;29;20444;-48
2024/02/17 11:53:48;;;;;;;14.03;13.03;;;15.40;96.80;;;;;;4789568;29;20440;-51
2024/02/17 11:56:15;;;;;;;14.23;13.43;;;15.40;96.60;;;;;;4790432;29;20472;-51
2024/02/17 11:58:43;;;;;;;14.73;13.73;;;15.40;95.30;;;;;;4791653;29;20490;-48
2024/02/17 12:01:11;;;;;;;14.77;13.67;;;15.30;94.40;;;;;;4791571;29;20880;-46
2024/02/17 12:03:36;;;;;;;14.90;13.70;;;15.20;96.00;;;;;;4782265;29;20561;-47
2024/02/17 12:06:03;;;;;;;15.57;14.37;;;15.00;96.30;;;;;;4792029;29;20443;-47
2024/02/17 12:08:30;;;;;;;14.57;13.57;;;14.80;96.30;;;;;;4781063;29;20218;-48
2024/02/17 12:10:57;;;;;;;16.23;14.83;;;14.60;97.10;;;;;;4784231;29;21158;-48
2024/02/17 12:13:23;;;;;;;13.33;12.43;;;14.60;97.40;;;;;;4788059;29;20502;-48
2024/02/17 12:15:50;;;;;;;13.87;13.07;;;14.40;97.30;;;;;;4787344;29;20455;-53
2024/02/17 12:18:19;;;;;;;23.80;21.80;;;14.20;98.90;;;;;;4777766;29;20481;-51
2024/02/17 12:20:45;;;;;;;18.43;17.33;;;14.20;99.10;;;;;;4781451;29;20421;-51
2024/02/17 12:23:11;;;;;;;16.77;15.60;;;14.20;99.40;;;;;;4785573;29;20923;-51
2024/02/17 12:25:38;;;;;;;13.73;12.93;;;14.30;99.30;;;;;;4786906;29;20191;-53
2024/02/17 12:28:07;;;;;;;14.07;13.27;;;14.50;98.30;;;;;;4784457;29;20454;-49